createdAt,value
2022-10-21T00:00:42.160Z,4.15
2022-10-21T00:01:44.071Z,4.01
2022-10-21T00:02:46.305Z,4.08
2022-10-21T00:03:48.208Z,5.36
2022-10-21T00:04:50.109Z,3.85
2022-10-21T00:05:52.455Z,3.15
2022-10-21T00:06:54.438Z,3.58
2022-10-21T00:07:57.029Z,3.91
2022-10-21T00:08:59.023Z,3.45
2022-10-21T00:10:01.848Z,4.32
2022-10-21T00:11:06.691Z,3.35
2022-10-21T00:12:08.705Z,4.90
2022-10-21T00:13:11.289Z,3.59
2022-10-21T00:14:13.669Z,3.63
2022-10-21T00:15:15.585Z,3.37
2022-10-21T00:16:18.954Z,3.67
2022-10-21T00:17:20.842Z,5.03
2022-10-21T00:18:22.802Z,5.33
2022-10-21T00:19:24.804Z,4.59
2022-10-21T00:20:26.812Z,3.88
2022-10-21T00:21:29.056Z,3.10
2022-10-21T00:22:31.142Z,2.54
2022-10-21T00:23:33.291Z,3.65
2022-10-21T00:24:35.425Z,2.93
2022-10-21T00:25:38.029Z,3.83
2022-10-21T00:26:40.473Z,3.36
2022-10-21T00:27:42.615Z,3.89
2022-10-21T00:28:44.840Z,5.20
2022-10-21T00:29:46.853Z,6.04
2022-10-21T00:30:48.823Z,4.36
2022-10-21T00:31:53.929Z,3.53
2022-10-21T00:33:00.685Z,4.10
2022-10-21T00:34:00.127Z,4.33
2022-10-21T00:35:02.516Z,4.09
2022-10-21T00:36:05.734Z,2.91
2022-10-21T00:37:07.748Z,4.74
2022-10-21T00:38:09.695Z,3.24
2022-10-21T00:39:11.780Z,3.12
2022-10-21T00:40:15.811Z,4.51
2022-10-21T00:41:19.426Z,2.98
2022-10-21T00:42:22.857Z,5.64
2022-10-21T00:43:26.470Z,4.49
2022-10-21T00:44:28.488Z,3.49
2022-10-21T00:45:30.641Z,4.05
2022-10-21T00:46:36.522Z,4.17
2022-10-21T00:48:53.290Z,4.05
2022-10-21T00:50:01.699Z,3.97
2022-10-21T00:51:07.159Z,3.16
2022-10-21T00:52:12.938Z,4.77
2022-10-21T00:53:16.156Z,3.84
2022-10-21T00:54:19.987Z,3.68
2022-10-21T00:55:23.405Z,3.96
2022-10-21T00:56:29.103Z,3.51
2022-10-21T00:57:33.843Z,3.72
2022-10-21T00:58:36.158Z,3.99
2022-10-21T00:59:41.376Z,4.33
2022-10-21T01:00:43.639Z,4.19
2022-10-21T01:01:47.600Z,4.22
2022-10-21T01:02:50.027Z,4.09
2022-10-21T01:03:53.017Z,3.86
2022-10-21T01:04:58.673Z,3.84
2022-10-21T01:06:04.122Z,4.67
2022-10-21T01:07:06.155Z,4.13
2022-10-21T01:08:08.052Z,4.86
2022-10-21T01:09:11.808Z,4.71
2022-10-21T01:10:15.076Z,5.26
2022-10-21T01:11:19.011Z,6.12
2022-10-21T01:15:30.630Z,4.23
2022-10-21T01:16:48.700Z,4.54
2022-10-21T01:17:57.411Z,5.33
2022-10-21T01:21:47.753Z,6.66
2022-10-21T01:23:27.391Z,5.69
2022-10-21T01:25:08.130Z,6.97
2022-10-21T01:26:26.766Z,3.92
2022-10-21T01:27:32.703Z,3.95
2022-10-21T01:28:56.678Z,4.37
2022-10-21T01:30:05.397Z,6.24
2022-10-21T01:31:14.090Z,5.89
2022-10-21T01:32:39.305Z,5.93
2022-10-21T01:33:44.990Z,5.81
2022-10-21T01:34:53.895Z,5.59
2022-10-21T01:36:25.344Z,5.28
2022-10-21T01:37:34.094Z,4.48
2022-10-21T01:38:39.860Z,5.03
2022-10-21T01:39:51.060Z,5.39
2022-10-21T01:40:56.911Z,4.94
2022-10-21T01:42:02.715Z,5.14
2022-10-21T01:43:08.428Z,4.84
2022-10-21T01:44:32.259Z,5.34
2022-10-21T01:45:37.981Z,5.39
2022-10-21T01:46:43.790Z,5.24
2022-10-21T01:48:06.159Z,4.71
2022-10-21T01:51:27.628Z,5.86
2022-10-21T01:52:30.524Z,6.02
2022-10-21T01:53:45.483Z,5.74
2022-10-21T01:54:54.181Z,7.15
2022-10-21T01:56:01.964Z,4.83
2022-10-21T01:57:06.297Z,5.10
2022-10-21T01:58:15.161Z,5.28
2022-10-21T01:59:19.711Z,6.66
2022-10-21T02:00:21.744Z,5.51
2022-10-21T02:01:24.570Z,6.19
2022-10-21T02:02:30.353Z,6.32
2022-10-21T02:03:36.067Z,4.61
2022-10-21T02:04:41.334Z,5.66
2022-10-21T02:05:43.763Z,4.62
2022-10-21T02:06:45.951Z,6.05
2022-10-21T02:07:48.334Z,4.71
2022-10-21T02:08:51.058Z,5.67
2022-10-21T02:09:53.010Z,6.85
2022-10-21T02:10:58.849Z,4.60
2022-10-21T02:12:04.631Z,4.89
2022-10-21T02:13:10.169Z,5.46
2022-10-21T02:14:18.995Z,6.19
2022-10-21T02:15:23.129Z,5.93
2022-10-21T02:16:28.919Z,4.86
2022-10-21T02:17:31.219Z,7.09
2022-10-21T02:18:33.129Z,5.91
2022-10-21T02:19:35.314Z,5.42
2022-10-21T02:20:41.195Z,5.14
2022-10-21T02:21:46.126Z,6.10
2022-10-21T02:22:49.228Z,5.66
2022-10-21T02:23:54.779Z,4.71
2022-10-21T02:25:00.542Z,5.38
2022-10-21T02:26:02.901Z,5.22
2022-10-21T02:27:05.101Z,7.07
2022-10-21T02:28:07.868Z,4.80
2022-10-21T02:29:12.327Z,4.65
2022-10-21T02:30:15.481Z,5.37
2022-10-21T02:31:36.080Z,7.75
2022-10-21T02:32:57.214Z,5.22
2022-10-21T02:34:08.796Z,5.76
2022-10-21T02:35:38.562Z,6.23
2022-10-21T02:37:13.626Z,5.77
2022-10-21T02:38:24.975Z,5.95
2022-10-21T02:39:53.606Z,7.14
2022-10-21T02:41:09.067Z,6.16
2022-10-21T02:42:14.878Z,8.38
2022-10-21T02:43:20.553Z,5.92
2022-10-21T02:44:22.876Z,5.51
2022-10-21T02:45:26.532Z,7.37
2022-10-21T02:46:37.863Z,7.05
2022-10-21T02:47:41.763Z,7.86
2022-10-21T02:48:46.490Z,6.72
2022-10-21T02:49:48.428Z,5.16
2022-10-21T02:50:50.992Z,7.22
2022-10-21T02:51:53.543Z,7.78
2022-10-21T02:52:55.486Z,6.21
2022-10-21T02:53:57.540Z,8.19
2022-10-21T02:54:59.408Z,4.71
2022-10-21T02:56:01.967Z,8.78
2022-10-21T02:57:03.941Z,7.53
2022-10-21T02:58:05.816Z,5.91
2022-10-21T02:59:07.937Z,5.83
2022-10-21T03:00:12.288Z,6.12
2022-10-21T03:01:14.570Z,6.36
2022-10-21T03:02:16.821Z,6.64
2022-10-21T03:03:18.711Z,6.89
2022-10-21T03:04:20.700Z,9.63
2022-10-21T03:05:22.851Z,6.83
2022-10-21T03:06:24.972Z,7.33
2022-10-21T03:07:26.961Z,6.45
2022-10-21T03:08:28.977Z,7.65
2022-10-21T03:09:31.314Z,7.13
2022-10-21T03:10:33.528Z,6.83
2022-10-21T03:11:35.584Z,8.87
2022-10-21T03:12:37.455Z,7.41
2022-10-21T03:13:39.449Z,6.99
2022-10-21T03:14:41.338Z,6.65
2022-10-21T03:15:43.492Z,8.23
2022-10-21T03:16:45.820Z,8.41
2022-10-21T03:17:48.410Z,9.79
2022-10-21T03:18:50.478Z,8.47
2022-10-21T03:19:52.384Z,9.29
2022-10-21T03:20:54.577Z,8.60
2022-10-21T03:21:56.626Z,9.21
2022-10-21T03:22:58.493Z,8.81
2022-10-21T03:24:00.538Z,8.53
2022-10-21T03:25:03.313Z,11.86
2022-10-21T03:26:05.788Z,9.14
2022-10-21T03:27:08.138Z,10.99
2022-10-21T03:28:12.149Z,9.63
2022-10-21T03:29:14.399Z,10.69
2022-10-21T03:30:16.862Z,9.16
2022-10-21T03:31:19.085Z,9.81
2022-10-21T03:32:20.974Z,7.72
2022-10-21T03:33:22.858Z,7.13
2022-10-21T03:34:24.767Z,9.99
2022-10-21T03:35:27.834Z,7.09
2022-10-21T03:36:30.458Z,8.16
2022-10-21T03:37:32.374Z,8.51
2022-10-21T03:38:34.641Z,7.05
2022-10-21T03:39:36.808Z,6.98
2022-10-21T03:40:39.013Z,6.83
2022-10-21T03:41:41.005Z,6.68
2022-10-21T03:42:42.960Z,7.07
2022-10-21T03:43:44.944Z,5.63
2022-10-21T03:44:46.922Z,7.30
2022-10-21T03:45:49.121Z,7.23
2022-10-21T03:46:51.118Z,5.43
2022-10-21T03:47:53.435Z,6.69
2022-10-21T03:48:59.286Z,6.68
2022-10-21T03:49:59.289Z,6.40
2022-10-21T03:51:01.473Z,6.02
2022-10-21T03:52:03.453Z,6.99
2022-10-21T03:53:13.784Z,7.21
2022-10-21T03:54:09.162Z,5.89
2022-10-21T03:55:11.310Z,6.34
2022-10-21T03:56:14.066Z,8.57
2022-10-21T03:57:16.137Z,5.75
2022-10-21T03:58:18.016Z,7.23
2022-10-21T03:59:19.902Z,6.01
2022-10-21T04:00:22.427Z,6.22
2022-10-21T04:01:24.919Z,7.02
2022-10-21T04:02:26.963Z,5.93
2022-10-21T04:03:29.250Z,7.57
2022-10-21T04:04:31.146Z,8.15
2022-10-21T04:05:33.731Z,6.83
2022-10-21T04:06:36.054Z,10.10
2022-10-21T04:07:38.230Z,7.01
2022-10-21T04:08:40.163Z,8.26
2022-10-21T04:09:42.100Z,11.19
2022-10-21T04:10:44.992Z,11.13
2022-10-21T04:11:47.246Z,8.84
2022-10-21T04:12:49.263Z,7.41
2022-10-21T04:13:51.429Z,8.62
2022-10-21T04:14:53.399Z,7.93
2022-10-21T04:16:00.319Z,6.16
2022-10-21T04:17:07.343Z,6.27
2022-10-21T04:18:07.478Z,6.48
2022-10-21T04:19:13.112Z,7.12
2022-10-21T04:20:15.772Z,7.21
2022-10-21T04:21:17.866Z,5.80
2022-10-21T04:22:19.911Z,6.82
2022-10-21T04:23:22.214Z,6.49
2022-10-21T04:24:24.170Z,6.67
2022-10-21T04:25:26.031Z,7.48
2022-10-21T04:26:28.121Z,8.54
2022-10-21T04:27:30.219Z,6.81
2022-10-21T04:28:32.643Z,4.91
2022-10-21T04:29:34.534Z,7.03
2022-10-21T04:30:37.113Z,7.53
2022-10-21T04:31:39.060Z,5.97
2022-10-21T04:32:41.232Z,7.01
2022-10-21T04:33:43.403Z,5.74
2022-10-21T04:34:45.313Z,5.43
2022-10-21T04:35:47.191Z,5.87
2022-10-21T04:36:49.346Z,6.15
2022-10-21T04:37:51.210Z,8.87
2022-10-21T04:38:53.762Z,5.84
2022-10-21T04:39:55.640Z,6.21
2022-10-21T04:40:59.223Z,7.20
2022-10-21T04:42:01.332Z,7.25
2022-10-21T04:43:03.744Z,6.16
2022-10-21T04:44:05.616Z,7.83
2022-10-21T04:45:08.529Z,7.16
2022-10-21T04:46:12.641Z,8.44
2022-10-21T04:47:15.052Z,7.03
2022-10-21T04:48:17.634Z,7.77
2022-10-21T04:49:19.531Z,7.69
2022-10-21T04:50:23.443Z,5.71
2022-10-21T04:51:25.409Z,6.34
2022-10-21T04:52:27.399Z,8.73
2022-10-21T04:53:29.370Z,6.03
2022-10-21T04:54:31.250Z,6.44
2022-10-21T04:55:33.131Z,6.59
2022-10-21T04:56:35.468Z,6.77
2022-10-21T04:57:37.410Z,7.29
2022-10-21T04:58:39.308Z,7.13
2022-10-21T04:59:41.442Z,7.85
2022-10-21T05:00:43.633Z,7.05
2022-10-21T05:01:45.755Z,8.50
2022-10-21T05:02:47.732Z,7.21
2022-10-21T05:03:49.813Z,6.89
2022-10-21T05:04:51.685Z,8.45
2022-10-21T05:05:53.658Z,7.59
2022-10-21T05:06:55.639Z,7.49
2022-10-21T05:07:57.528Z,7.29
2022-10-21T05:08:59.473Z,7.13
2022-10-21T05:10:04.313Z,6.43
2022-10-21T05:11:06.477Z,6.36
2022-10-21T05:12:08.657Z,8.47
2022-10-21T05:13:10.526Z,6.89
2022-10-21T05:14:12.575Z,7.55
2022-10-21T05:15:14.620Z,9.65
2022-10-21T05:16:17.099Z,8.07
2022-10-21T05:17:18.979Z,7.03
2022-10-21T05:18:20.879Z,10.19
2022-10-21T05:19:23.536Z,12.27
2022-10-21T05:20:26.205Z,10.54
2022-10-21T05:21:28.248Z,7.79
2022-10-21T05:22:30.185Z,8.20
2022-10-21T05:23:32.338Z,6.83
2022-10-21T05:24:34.360Z,10.89
2022-10-21T05:25:36.531Z,7.39
2022-10-21T05:26:38.810Z,7.63
2022-10-21T05:27:40.717Z,8.00
2022-10-21T05:30:45.251Z,8.33
2022-10-21T05:31:47.307Z,7.89
2022-10-21T05:32:49.201Z,7.03
2022-10-21T05:33:51.301Z,13.69
2022-10-21T05:34:53.246Z,10.28
2022-10-21T05:35:58.032Z,21.44
2022-10-21T05:37:00.073Z,16.94
2022-10-21T05:38:02.892Z,16.13
2022-10-21T05:39:05.213Z,9.14
2022-10-21T05:40:08.954Z,12.27
2022-10-21T05:41:10.992Z,27.32
2022-10-21T05:42:13.068Z,27.35
2022-10-21T05:43:14.971Z,17.93
2022-10-21T05:44:16.844Z,16.61
2022-10-21T05:45:19.161Z,14.90
2022-10-21T05:46:21.318Z,17.25
2022-10-21T05:47:23.186Z,5.93
2022-10-21T05:48:25.065Z,8.81
2022-10-21T05:49:26.954Z,8.91
2022-10-21T05:50:29.133Z,9.16
2022-10-21T05:51:30.994Z,9.83
2022-10-21T05:52:32.878Z,12.75
2022-10-21T05:53:34.975Z,19.69
2022-10-21T05:54:36.849Z,18.69
2022-10-21T05:55:39.479Z,9.53
2022-10-21T05:56:41.623Z,8.87
2022-10-21T05:57:43.546Z,7.25
2022-10-21T05:58:45.858Z,6.01
2022-10-21T05:59:47.760Z,7.35
2022-10-21T06:00:50.893Z,8.18
2022-10-21T06:01:53.174Z,7.43
2022-10-21T08:09:43.531Z,6.55
2022-10-21T08:10:45.664Z,5.63
2022-10-21T08:11:48.317Z,10.43
2022-10-21T08:12:50.232Z,4.84
2022-10-21T08:13:53.221Z,6.66
2022-10-21T08:14:55.284Z,5.81
2022-10-21T08:15:58.602Z,6.39
2022-10-21T08:17:00.613Z,6.00
2022-10-21T08:18:02.764Z,3.89
2022-10-21T08:19:05.448Z,3.69
2022-10-21T08:20:08.887Z,3.79
2022-10-21T08:21:11.281Z,4.70
2022-10-21T08:22:13.138Z,4.21
2022-10-21T08:23:18.247Z,6.41
2022-10-21T08:24:20.320Z,3.88
2022-10-21T08:25:22.192Z,5.09
2022-10-21T08:26:24.540Z,8.54
2022-10-21T08:27:26.423Z,3.65
2022-10-21T08:28:30.915Z,4.04
2022-10-21T08:29:35.289Z,4.20
2022-10-21T08:30:36.832Z,6.44
2022-10-21T08:31:38.813Z,6.94
2022-10-21T08:32:41.171Z,8.17
2022-10-21T08:33:43.894Z,5.21
2022-10-21T08:34:45.789Z,4.23
2022-10-21T08:35:47.677Z,5.36
2022-10-21T08:36:49.675Z,5.22
2022-10-21T08:37:52.158Z,5.83
2022-10-21T08:38:54.560Z,4.50
2022-10-21T08:39:57.328Z,3.01
2022-10-21T08:41:00.857Z,5.78
2022-10-21T08:42:15.500Z,4.94
2022-10-21T08:44:55.806Z,5.09
2022-10-21T08:46:16.891Z,5.09
2022-10-21T08:47:37.962Z,4.15
2022-10-21T08:48:46.877Z,3.59
2022-10-21T08:50:01.967Z,4.79
2022-10-21T08:51:07.455Z,5.00
2022-10-21T08:52:13.276Z,5.79
2022-10-21T08:56:49.880Z,4.17
2022-10-21T08:57:53.505Z,5.29
2022-10-21T08:58:55.935Z,4.57
2022-10-21T08:59:58.093Z,5.01
2022-10-21T09:01:07.109Z,4.36
2022-10-21T09:02:32.301Z,3.24
2022-10-21T09:03:46.777Z,4.39
2022-10-21T09:04:52.597Z,5.57
2022-10-21T09:06:10.646Z,3.96
2022-10-21T09:07:22.581Z,4.36
2022-10-21T09:09:54.234Z,5.77
2022-10-21T09:11:03.035Z,2.59
2022-10-21T09:12:18.127Z,3.76
2022-10-21T09:13:24.013Z,6.69
2022-10-21T09:15:39.156Z,6.52
2022-10-21T09:17:02.190Z,4.97
2022-10-21T09:18:37.253Z,3.96
2022-10-21T09:19:48.690Z,4.46
2022-10-21T09:20:56.098Z,10.29
2022-10-21T09:22:34.383Z,6.23
2022-10-21T09:23:51.989Z,5.23
2022-10-21T09:25:00.262Z,4.27
2022-10-21T09:26:12.183Z,6.79
2022-10-21T09:27:16.957Z,5.15
2022-10-21T09:28:18.752Z,4.06
2022-10-21T09:29:43.088Z,4.66
2022-10-21T09:30:47.297Z,5.17
2022-10-21T09:31:55.144Z,3.16
2022-10-21T09:32:58.703Z,6.42
2022-10-21T09:34:03.051Z,8.09
2022-10-21T09:35:25.266Z,4.01
2022-10-21T09:36:40.346Z,4.13
2022-10-21T09:37:48.770Z,3.83
2022-10-21T09:38:57.424Z,3.24
2022-10-21T09:40:18.125Z,3.31
2022-10-21T09:41:26.423Z,3.02
2022-10-21T09:42:46.482Z,4.20
2022-10-21T09:43:32.542Z,3.21
2022-10-21T09:44:34.587Z,3.13
2022-10-21T09:45:39.471Z,4.89
2022-10-21T09:46:44.757Z,2.47
2022-10-21T09:47:51.556Z,2.91
2022-10-21T09:50:07.288Z,4.42
2022-10-21T09:51:22.619Z,5.81
2022-10-21T09:52:29.048Z,3.51
2022-10-21T09:53:34.823Z,3.59
2022-10-21T09:54:40.841Z,4.47
2022-10-21T09:55:49.510Z,3.69
2022-10-21T09:56:55.359Z,3.37
2022-10-21T09:58:00.020Z,4.96
2022-10-21T09:59:11.374Z,4.49
2022-10-21T10:00:14.571Z,3.26
2022-10-21T10:01:20.014Z,3.13
2022-10-21T10:02:31.898Z,3.06
2022-10-21T10:03:42.648Z,3.08
2022-10-21T10:04:44.740Z,4.59
2022-10-21T10:05:47.004Z,3.37
2022-10-21T10:06:50.007Z,3.25
2022-10-21T10:07:52.104Z,3.77
2022-10-21T10:08:57.837Z,3.01
2022-10-21T10:10:01.109Z,3.52
2022-10-21T10:11:12.437Z,5.09
2022-10-21T10:12:17.512Z,4.11
2022-10-21T10:13:20.135Z,4.31
2022-10-21T10:14:32.006Z,3.81
2022-10-21T10:15:36.092Z,3.46
2022-10-21T10:16:39.019Z,3.91
2022-10-21T10:17:41.036Z,3.58
2022-10-21T10:18:44.982Z,3.38
2022-10-21T10:20:09.502Z,6.87
2022-10-21T10:21:16.151Z,2.88
2022-10-21T10:22:18.276Z,6.21
2022-10-21T10:23:20.332Z,6.01
2022-10-21T10:24:22.946Z,10.25
2022-10-21T10:27:55.747Z,3.41
2022-10-21T10:29:04.342Z,4.37
2022-10-21T10:30:10.536Z,4.28
2022-10-21T10:31:18.393Z,5.03
2022-10-21T10:32:24.776Z,6.21
2022-10-21T10:33:31.622Z,5.24
2022-10-21T10:34:38.184Z,5.81
2022-10-21T10:35:44.341Z,7.55
2022-10-21T10:36:48.984Z,4.96
2022-10-21T10:37:52.459Z,5.90
2022-10-21T10:38:57.951Z,4.33
2022-10-21T10:40:02.682Z,11.14
2022-10-21T10:41:16.720Z,7.96
2022-10-21T10:42:22.429Z,4.02
2022-10-21T10:43:28.248Z,5.87
2022-10-21T10:44:39.779Z,3.54
2022-10-21T10:47:10.499Z,3.12
2022-10-21T10:48:28.346Z,5.06
2022-10-21T10:49:36.821Z,5.21
2022-10-21T10:50:45.858Z,3.73
2022-10-21T10:51:51.537Z,2.78
2022-10-21T10:53:27.403Z,3.58
2022-10-21T10:54:29.810Z,5.03
2022-10-21T10:55:32.915Z,6.08
2022-10-21T10:56:51.008Z,3.62
2022-10-21T10:58:06.417Z,4.55
2022-10-21T10:59:18.612Z,5.72
2022-10-21T11:00:22.489Z,4.13
2022-10-21T11:01:28.235Z,6.59
2022-10-21T11:02:45.804Z,3.93
2022-10-21T11:04:11.349Z,5.63
2022-10-21T11:05:29.347Z,2.64
2022-10-21T11:06:38.446Z,3.02
2022-10-21T11:07:55.837Z,5.81
2022-10-21T11:08:59.110Z,4.63
2022-10-21T11:10:08.021Z,2.48
2022-10-21T15:14:49.369Z,12.89
2022-10-21T15:15:54.448Z,20.51
2022-10-21T15:17:03.900Z,18.83
2022-10-21T15:18:09.646Z,24.72
2022-10-21T15:19:15.376Z,23.64
2022-10-21T15:20:17.857Z,25.75
2022-10-21T15:21:38.819Z,22.44
2022-10-21T15:22:41.441Z,15.46
2022-10-21T15:23:53.334Z,16.14
2022-10-21T15:25:01.566Z,15.85
2022-10-21T15:26:10.077Z,12.58
2022-10-21T15:27:18.744Z,12.72
2022-10-21T15:28:21.175Z,15.50
2022-10-21T15:29:26.910Z,15.94
2022-10-21T15:30:28.963Z,16.42
2022-10-21T15:31:30.870Z,20.08
2022-10-21T15:32:32.760Z,21.16
2022-10-21T15:33:35.209Z,15.56
2022-10-21T15:34:38.959Z,20.05
2022-10-21T15:35:42.233Z,29.06
2022-10-21T15:36:44.596Z,29.21
2022-10-21T15:37:48.253Z,39.53
2022-10-21T15:38:50.686Z,57.88
2022-10-21T15:39:53.173Z,45.55
2022-10-21T15:40:55.794Z,49.28
2022-10-21T15:41:59.280Z,55.87
2022-10-21T15:43:01.527Z,42.29
2022-10-21T15:44:18.324Z,26.56
2022-10-21T15:45:21.742Z,32.39
2022-10-21T15:46:25.475Z,24.86
2022-10-21T15:47:28.389Z,22.47
2022-10-21T15:48:32.702Z,19.03
2022-10-21T15:49:39.876Z,28.37
2022-10-21T15:50:42.425Z,30.28
2022-10-21T15:51:49.773Z,35.57
2022-10-21T15:54:00.463Z,25.78
2022-10-21T15:55:03.126Z,24.32
2022-10-21T15:56:05.820Z,19.63
2022-10-21T15:57:19.057Z,17.29
2022-10-21T15:58:21.603Z,17.07
2022-10-21T15:59:33.191Z,11.09
2022-10-21T16:00:40.051Z,13.16
2022-10-21T16:01:40.871Z,21.42
2022-10-21T16:02:44.347Z,15.73
2022-10-21T16:03:46.696Z,16.95
2022-10-21T16:04:48.684Z,14.71
2022-10-21T16:05:51.750Z,14.78
2022-10-21T16:06:55.230Z,18.10
2022-10-21T16:07:58.241Z,26.34
2022-10-21T16:09:00.786Z,21.06
2022-10-21T16:10:19.471Z,25.92
2022-10-21T16:11:29.956Z,29.96
2022-10-21T16:12:25.970Z,39.55
2022-10-21T16:13:27.953Z,42.17
2022-10-21T16:14:31.002Z,66.65
2022-10-21T16:15:33.720Z,54.00
2022-10-21T16:16:39.649Z,43.71
2022-10-21T16:19:56.684Z,54.52
2022-10-21T16:20:58.883Z,38.31
2022-10-21T16:22:00.767Z,43.48
2022-10-21T16:23:03.500Z,40.12
2022-10-21T16:24:06.183Z,44.66
2022-10-21T16:25:08.376Z,33.82
2022-10-21T16:26:20.056Z,42.02
2022-10-21T16:27:31.265Z,36.09
2022-10-21T16:28:25.993Z,45.03
2022-10-21T16:29:28.122Z,51.15
2022-10-21T16:30:36.332Z,69.85
2022-10-21T16:31:38.292Z,68.40
2022-10-21T16:32:40.609Z,56.00
2022-10-21T16:33:43.512Z,39.74
2022-10-21T16:34:45.734Z,43.99
2022-10-21T16:35:47.760Z,30.15
2022-10-21T16:36:49.949Z,33.00
2022-10-21T16:37:52.447Z,34.73
2022-10-21T16:38:55.053Z,38.44
2022-10-21T16:39:56.928Z,30.34
2022-10-21T16:40:59.149Z,34.47
2022-10-21T16:42:01.250Z,42.74
2022-10-21T16:43:03.244Z,32.61
2022-10-21T16:44:05.396Z,28.27
2022-10-21T16:45:08.689Z,33.35
2022-10-21T16:46:31.472Z,38.38
2022-10-21T16:47:33.479Z,34.77
2022-10-21T16:48:35.368Z,33.37
2022-10-21T16:49:37.382Z,35.37
2022-10-21T16:50:43.319Z,28.92
2022-10-21T16:51:45.435Z,30.52
2022-10-21T16:52:48.177Z,31.02
2022-10-21T16:53:50.059Z,32.44
2022-10-21T16:54:52.032Z,23.98
2022-10-21T16:55:54.188Z,38.27
2022-10-21T16:57:01.225Z,36.51
2022-10-21T16:58:04.086Z,37.85
2022-10-21T16:59:06.325Z,31.83
2022-10-21T17:00:10.045Z,26.92
2022-10-21T17:01:18.910Z,26.21
2022-10-21T17:02:22.978Z,23.22
2022-10-21T17:03:25.019Z,16.89
2022-10-21T17:04:29.118Z,14.29
2022-10-21T17:05:31.316Z,20.58
2022-10-21T17:06:33.677Z,19.83
2022-10-21T17:07:35.632Z,22.09
2022-10-21T17:08:37.573Z,20.21
2022-10-21T17:09:39.991Z,22.44
2022-10-21T17:10:42.183Z,24.12
2022-10-21T17:11:44.677Z,19.98
2022-10-21T17:12:46.678Z,19.15
2022-10-21T17:13:49.894Z,17.93
2022-10-21T17:14:51.855Z,21.69
2022-10-21T17:15:53.752Z,21.22
2022-10-21T17:16:55.831Z,21.47
2022-10-21T17:17:57.936Z,19.87
2022-10-21T17:18:59.977Z,19.72
2022-10-21T17:20:02.605Z,27.02
2022-10-21T17:21:05.993Z,30.61
2022-10-21T17:22:11.711Z,29.20
2022-10-21T17:23:15.387Z,32.75
2022-10-21T17:24:17.846Z,33.78
2022-10-21T17:25:19.730Z,32.13
2022-10-21T17:26:23.644Z,36.73
2022-10-21T17:27:26.446Z,30.08
2022-10-21T17:28:28.342Z,31.58
2022-10-21T17:29:30.444Z,34.65
2022-10-21T17:30:33.091Z,33.88
2022-10-21T17:31:35.011Z,37.71
2022-10-21T17:32:37.205Z,44.64
2022-10-21T17:33:39.243Z,47.04
2022-10-21T17:34:42.537Z,75.70
2022-10-21T17:35:44.488Z,75.01
2022-10-21T17:36:46.625Z,52.53
2022-10-21T17:37:49.325Z,68.51
2022-10-21T17:38:51.402Z,54.89
2022-10-21T17:39:53.312Z,64.37
2022-10-21T17:40:55.616Z,71.87
2022-10-21T17:41:58.078Z,65.23
2022-10-21T17:43:00.280Z,50.33
2022-10-21T17:44:02.485Z,49.62
2022-10-21T17:45:06.076Z,50.65
2022-10-21T17:50:30.160Z,39.15
2022-10-21T17:51:32.271Z,36.17
2022-10-21T17:52:36.857Z,40.39
2022-10-21T17:53:39.258Z,38.55
2022-10-21T17:54:41.417Z,32.57
2022-10-21T17:55:43.332Z,32.21
2022-10-21T17:56:45.681Z,34.07
2022-10-21T17:57:47.738Z,37.41
2022-10-21T17:58:51.967Z,37.39
2022-10-21T17:59:54.244Z,36.13
2022-10-21T18:00:56.929Z,32.05
2022-10-21T18:01:59.795Z,36.39
2022-10-21T18:03:01.872Z,35.74
2022-10-21T18:04:04.370Z,36.37
2022-10-21T18:05:08.204Z,36.09
2022-10-21T18:06:12.146Z,34.34
2022-10-21T18:07:15.490Z,35.29
2022-10-21T18:08:18.027Z,43.51
2022-10-21T18:09:20.124Z,36.11
2022-10-21T18:10:24.162Z,35.36
2022-10-21T18:11:26.326Z,40.38
2022-10-21T18:12:29.462Z,41.47
2022-10-21T18:13:31.754Z,40.03
2022-10-21T18:14:34.291Z,36.83
2022-10-21T18:15:37.633Z,39.36
2022-10-21T18:16:40.010Z,42.42
2022-10-21T18:17:42.130Z,42.27
2022-10-21T18:18:45.422Z,38.82
2022-10-21T18:19:47.526Z,41.13
2022-10-21T18:20:49.913Z,41.99
2022-10-21T18:21:51.804Z,38.93
2022-10-21T18:22:53.680Z,40.07
2022-10-21T18:23:55.667Z,41.35
2022-10-21T18:24:57.563Z,42.57
2022-10-21T18:26:04.387Z,44.65
2022-10-21T18:27:07.933Z,47.54
2022-10-21T18:28:10.515Z,47.18
2022-10-21T18:29:12.694Z,48.61
2022-10-21T18:30:15.098Z,43.70
2022-10-21T18:31:19.334Z,50.27
2022-10-21T18:32:21.433Z,46.84
2022-10-21T18:33:23.938Z,52.14
2022-10-21T18:34:26.150Z,46.83
2022-10-21T18:35:29.059Z,43.09
2022-10-21T18:36:32.082Z,47.34
2022-10-21T18:37:34.189Z,47.80
2022-10-21T18:38:36.474Z,43.92
2022-10-21T18:39:38.349Z,44.53
2022-10-21T18:40:43.787Z,52.30
2022-10-21T18:41:44.959Z,48.54
2022-10-21T18:42:48.794Z,45.31
2022-10-21T18:43:59.436Z,46.16
2022-10-21T18:45:05.227Z,54.52
2022-10-21T18:46:07.838Z,48.95
2022-10-21T18:47:10.532Z,53.59
2022-10-21T18:48:12.628Z,41.98
2022-10-21T18:49:15.639Z,49.86
2022-10-21T18:50:17.838Z,45.64
2022-10-21T18:51:21.259Z,48.78
2022-10-21T18:52:23.398Z,50.04
2022-10-21T18:53:25.912Z,51.66
2022-10-21T18:54:27.992Z,48.35
2022-10-21T18:55:30.275Z,44.28
2022-10-21T18:56:32.415Z,48.47
2022-10-21T18:57:34.642Z,49.34
2022-10-21T18:58:40.170Z,51.64
2022-10-21T18:59:42.106Z,51.50
2022-10-21T19:00:44.100Z,53.67
2022-10-21T19:01:46.141Z,49.62
2022-10-21T19:02:48.989Z,50.05
2022-10-21T19:03:52.051Z,47.47
2022-10-21T19:04:56.002Z,51.49
2022-10-21T19:06:16.804Z,56.25
2022-10-21T19:07:20.083Z,53.48
2022-10-21T19:08:23.014Z,52.43
2022-10-21T19:09:26.328Z,49.91
2022-10-21T19:12:43.128Z,54.50
2022-10-21T19:13:45.217Z,60.13
2022-10-21T19:14:47.447Z,54.99
2022-10-21T19:15:51.521Z,55.99
2022-10-21T19:16:54.797Z,54.26
2022-10-21T19:17:57.036Z,48.68
2022-10-21T19:18:59.032Z,50.93
2022-10-21T19:20:01.070Z,59.47
2022-10-21T19:21:04.026Z,53.49
2022-10-21T19:22:06.173Z,57.87
2022-10-21T19:23:08.236Z,54.26
2022-10-21T19:24:10.924Z,54.68
2022-10-21T19:25:12.961Z,51.95
2022-10-21T19:26:17.851Z,55.58
2022-10-21T19:27:19.175Z,63.09
2022-10-21T19:28:21.052Z,57.64
2022-10-21T19:29:25.158Z,61.76
2022-10-21T19:30:27.299Z,55.44
2022-10-21T19:31:34.655Z,55.23
2022-10-21T19:32:35.028Z,63.69
2022-10-21T19:33:38.262Z,60.11
2022-10-21T19:34:40.311Z,61.84
2022-10-21T19:35:42.228Z,59.12
2022-10-21T19:36:44.537Z,60.00
2022-10-21T19:37:46.518Z,72.82
2022-10-21T19:38:48.776Z,63.77
2022-10-21T19:39:50.703Z,64.77
2022-10-21T19:40:52.824Z,70.85
2022-10-21T19:41:54.736Z,73.49
2022-10-21T19:42:56.701Z,67.51
2022-10-21T19:43:59.306Z,63.85
2022-10-21T19:45:01.369Z,56.91
2022-10-21T19:46:06.895Z,59.91
2022-10-21T19:47:08.844Z,66.02
2022-10-21T19:48:10.740Z,61.40
2022-10-21T19:49:13.711Z,58.90
2022-10-21T19:50:16.842Z,59.99
2022-10-21T19:51:21.936Z,64.13
2022-10-21T19:52:23.889Z,61.13
2022-10-21T19:53:26.895Z,60.48
2022-10-21T19:54:28.952Z,59.09
2022-10-21T19:55:34.751Z,52.63
2022-10-21T19:56:37.274Z,57.97
2022-10-21T19:57:39.186Z,54.79
2022-10-21T19:58:42.070Z,50.98
2022-10-21T19:59:43.957Z,55.81
2022-10-21T20:00:46.409Z,52.73
2022-10-21T20:01:48.788Z,52.32
2022-10-21T20:02:50.773Z,51.44
2022-10-21T20:03:53.978Z,50.83
2022-10-21T20:04:56.216Z,52.67
2022-10-21T20:06:00.732Z,45.90
2022-10-21T20:07:02.954Z,45.19
2022-10-21T20:08:05.111Z,40.91
2022-10-21T20:09:10.321Z,41.68
2022-10-21T20:10:12.676Z,44.69
2022-10-21T20:11:19.731Z,40.97
2022-10-21T20:12:21.709Z,37.49
2022-10-21T20:13:24.716Z,41.94
2022-10-21T20:14:26.607Z,43.67
2022-10-21T20:15:28.485Z,41.98
2022-10-21T20:16:33.826Z,41.93
2022-10-21T20:17:35.905Z,42.58
2022-10-21T20:18:37.851Z,40.71
2022-10-21T20:19:39.730Z,39.07
2022-10-21T20:20:41.717Z,35.11
2022-10-21T20:21:45.781Z,43.53
2022-10-21T20:22:47.645Z,37.31
2022-10-21T20:23:50.126Z,39.94
2022-10-21T20:24:52.026Z,37.63
2022-10-21T20:25:57.498Z,38.41
2022-10-21T20:27:01.467Z,39.02
2022-10-21T20:28:03.760Z,41.74
2022-10-21T20:29:05.691Z,35.22
2022-10-21T20:30:09.018Z,40.86
2022-10-21T20:31:13.874Z,37.58
2022-10-21T20:32:15.899Z,40.31
2022-10-21T20:33:17.784Z,36.09
2022-10-21T20:34:19.695Z,37.05
2022-10-21T20:35:21.600Z,33.75
2022-10-21T20:36:29.951Z,33.55
2022-10-21T20:37:38.075Z,31.07
2022-10-21T20:38:40.847Z,38.21
2022-10-21T20:39:42.758Z,32.76
2022-10-21T20:40:46.885Z,37.53
2022-10-21T20:41:48.805Z,36.31
2022-10-21T20:42:50.694Z,34.78
2022-10-21T20:43:54.336Z,34.04
2022-10-21T20:44:56.251Z,31.82
2022-10-21T20:46:07.236Z,32.24
2022-10-21T20:47:09.185Z,34.97
2022-10-21T20:48:11.086Z,34.27
2022-10-21T20:49:13.757Z,32.89
2022-10-21T20:50:16.494Z,31.38
2022-10-21T20:51:24.143Z,31.03
2022-10-21T20:52:26.083Z,31.19